Central Wisconsin Airport
KCWA : now visible

Airfield :











YOU CAN JOIN US ON...

 
LOGIN :

Register | Disclaimer

   EN    FR    IT 

 









Legend :    VFR   Marginal VFR   IFR   Intensive IFR   Very Intensive IFR
Visi :
Ceiling :
>= 8 km
>= 3000ft
5 to 8 km
1000 to 3000 ft
1500m to 5 km
500 to 1000 ft
800 to 1500m
200 to 500 ft
< 800m
< 200 ft
Symbols :   Thunderstorms  Fog  Heavy snow  Heavy precipitations  Wind > 20 kt






- Airport Elevation : 1277 ft


KCWA - Central Wisconsin

CURRENT METAR :
  • 050755Z AUTO 12004KT 5SM -SN BKN022 OVC029 M03/M08 A3017 RMK AO2

EXPIRED METARs :
  • 050735Z AUTO 13003KT 7SM SCT023 OVC031 M02/M10 A3017 RMK AO2
  • 050715Z AUTO 00000KT 10SM OVC037 M03/M08 A3018 RMK AO2
  • 050655Z AUTO 00000KT 10SM BKN039 OVC046 M03/M07 A3019 RMK AO2
  • 050635Z AUTO 00000KT 10SM OVC048 M03/M07 A3020 RMK AO2
  • 050615Z AUTO 00000KT 7SM OVC050 M02/M09 A3021 RMK AO2
  • 050555Z AUTO 00000KT 10SM OVC065 M03/M08 A3022 RMK AO2
  • 050535Z AUTO 00000KT 10SM OVC065 M02/M08 A3023 RMK AO2
  • 050515Z AUTO 00000KT 10SM OVC065 M02/M10 A3023 RMK AO2

TAF KCWA
Valid from the 05 at 06:00 until the 06 at 06:00 UTC


050520Z 0506/0606 10003KT P6SM -SN OVC070
FM050800 10007KT 1 1/2SM -SN OVC030
FM051200 11010G18KT 5SM -SHSN OVC035
FM051600 12010G20KT 1SM -SN BR OVC010
TEMPO 0517/0520 1/2SM SN FG OVC006
FM052100 14008KT 2SM -SN BR OVC010
FM060000 16005KT 3SM -SHSN BR OVC012
FM060300 24010KT P6SM BKN020
KZMP FIR / North America



MET'MAP, your aeronautical weather chart ! - Copyright ORBIFLY December 2007 - Disclaimer

ORBIFLY MET'MAP TEAM :

Programming & Development : Alexandra Zaïnal
Concept & original design : Baudouin d'Aumeries
Assistance for programming : Marc-Olivier Méhu
Technical & hardware support : Manuel Goepfert

Contact : metmap@orbifly.com




SOURCES & CREDITS :

   NOAA       Earth
Advisory